sensor_id;sensor_type;location;lat;lon;timestamp;noise_LAeq;noise_LA_min;noise_LA_max;noise_LA01;noise_LA95
66463;Laerm;56827;52.178;4.500;2023-05-10T00:00:09;33.67;30.82;40.58;;
66463;Laerm;56827;52.178;4.500;2023-05-10T00:00:20;33.50;30.92;40.17;;
66463;Laerm;56827;52.178;4.500;2023-05-10T00:00:32;33.89;30.92;42.09;;
66463;Laerm;56827;52.178;4.500;2023-05-10T00:00:45;33.87;30.89;42.03;;
66463;Laerm;56827;52.178;4.500;2023-05-10T00:00:56;33.71;30.67;43.41;;
66463;Laerm;56827;52.178;4.500;2023-05-10T00:01:06;33.31;30.28;42.31;;
66463;Laerm;56827;52.178;4.500;2023-05-10T00:01:17;33.51;30.26;39.68;;
66463;Laerm;56827;52.178;4.500;2023-05-10T00:01:27;39.52;30.58;50.73;;
66463;Laerm;56827;52.178;4.500;2023-05-10T00:01:38;33.32;30.53;39.32;;
66463;Laerm;56827;52.178;4.500;2023-05-10T00:01:48;35.06;31.00;54.09;;
66463;Laerm;56827;52.178;4.500;2023-05-10T00:01:58;33.75;30.59;41.15;;
66463;Laerm;56827;52.178;4.500;2023-05-10T00:02:08;33.36;30.55;41.28;;
66463;Laerm;56827;52.178;4.500;2023-05-10T00:02:18;33.78;30.93;39.59;;
66463;Laerm;56827;52.178;4.500;2023-05-10T00:02:29;33.76;30.75;40.08;;
66463;Laerm;56827;52.178;4.500;2023-05-10T00:02:39;34.05;30.66;44.42;;
66463;Laerm;56827;52.178;4.500;2023-05-10T00:02:50;33.63;30.64;39.49;;
66463;Laerm;56827;52.178;4.500;2023-05-10T00:03:00;33.10;29.65;39.73;;
66463;Laerm;56827;52.178;4.500;2023-05-10T00:03:10;33.08;30.14;40.44;;
66463;Laerm;56827;52.178;4.500;2023-05-10T00:03:20;34.37;30.21;42.34;;
66463;Laerm;56827;52.178;4.500;2023-05-10T00:03:31;34.45;30.42;42.92;;
66463;Laerm;56827;52.178;4.500;2023-05-10T00:03:41;33.30;30.68;39.39;;
66463;Laerm;56827;52.178;4.500;2023-05-10T00:03:51;33.88;31.04;43.75;;
66463;Laerm;56827;52.178;4.500;2023-05-10T00:04:02;33.82;31.24;41.10;;
66463;Laerm;56827;52.178;4.500;2023-05-10T00:04:12;33.83;31.28;39.38;;
66463;Laerm;56827;52.178;4.500;2023-05-10T00:04:22;33.82;30.73;39.78;;
66463;Laerm;56827;52.178;4.500;2023-05-10T00:04:32;33.73;31.04;40.02;;
66463;Laerm;56827;52.178;4.500;2023-05-10T00:04:43;33.84;30.84;43.64;;
66463;Laerm;56827;52.178;4.500;2023-05-10T00:04:53;34.31;31.00;43.37;;
66463;Laerm;56827;52.178;4.500;2023-05-10T00:05:03;33.49;30.82;40.08;;
66463;Laerm;56827;52.178;4.500;2023-05-10T00:05:14;33.41;30.48;39.25;;
66463;Laerm;56827;52.178;4.500;2023-05-10T00:05:24;33.87;31.02;48.19;;
66463;Laerm;56827;52.178;4.500;2023-05-10T00:05:34;33.16;30.59;40.30;;
66463;Laerm;56827;52.178;4.500;2023-05-10T00:05:45;34.04;31.06;49.00;;
66463;Laerm;56827;52.178;4.500;2023-05-10T00:05:55;33.82;31.08;39.16;;
66463;Laerm;56827;52.178;4.500;2023-05-10T00:06:05;33.73;30.92;39.97;;
66463;Laerm;56827;52.178;4.500;2023-05-10T00:06:16;34.04;31.28;41.97;;
66463;Laerm;56827;52.178;4.500;2023-05-10T00:06:26;33.63;30.82;40.60;;
66463;Laerm;56827;52.178;4.500;2023-05-10T00:06:36;33.39;30.80;41.16;;
66463;Laerm;56827;52.178;4.500;2023-05-10T00:06:47;34.52;31.62;40.47;;
66463;Laerm;56827;52.178;4.500;2023-05-10T00:06:57;34.78;32.18;42.77;;
66463;Laerm;56827;52.178;4.500;2023-05-10T00:07:07;34.52;31.80;40.64;;
66463;Laerm;56827;52.178;4.500;2023-05-10T00:07:17;34.45;31.02;40.01;;
66463;Laerm;56827;52.178;4.500;2023-05-10T00:07:28;34.75;31.79;43.99;;
66463;Laerm;56827;52.178;4.500;2023-05-10T00:07:38;34.74;32.33;40.01;;
66463;Laerm;56827;52.178;4.500;2023-05-10T00:07:48;34.73;31.58;40.59;;
66463;Laerm;56827;52.178;4.500;2023-05-10T00:07:58;34.79;31.92;41.45;;
66463;Laerm;56827;52.178;4.500;2023-05-10T00:08:08;34.94;32.72;42.63;;
66463;Laerm;56827;52.178;4.500;2023-05-10T00:08:19;35.53;33.36;40.42;;
66463;Laerm;56827;52.178;4.500;2023-05-10T00:08:30;35.62;33.29;42.36;;
66463;Laerm;56827;52.178;4.500;2023-05-10T00:08:40;34.73;32.28;38.99;;
66463;Laerm;56827;52.178;4.500;2023-05-10T00:08:50;34.45;31.80;40.57;;
66463;Laerm;56827;52.178;4.500;2023-05-10T00:09:00;35.33;32.96;40.62;;
66463;Laerm;56827;52.178;4.500;2023-05-10T00:09:11;34.67;32.18;40.28;;
66463;Laerm;56827;52.178;4.500;2023-05-10T00:09:21;34.30;31.75;39.68;;
66463;Laerm;56827;52.178;4.500;2023-05-10T00:09:31;34.52;31.51;50.55;;
66463;Laerm;56827;52.178;4.500;2023-05-10T00:09:41;34.52;32.26;41.05;;
66463;Laerm;56827;52.178;4.500;2023-05-10T00:09:52;35.17;32.61;41.34;;
66463;Laerm;56827;52.178;4.500;2023-05-10T00:10:02;35.12;31.81;48.65;;
66463;Laerm;56827;52.178;4.500;2023-05-10T00:10:12;34.94;31.93;41.33;;
66463;Laerm;56827;52.178;4.500;2023-05-10T00:10:23;35.67;32.72;45.46;;
66463;Laerm;56827;52.178;4.500;2023-05-10T00:10:33;34.69;32.32;41.09;;
66463;Laerm;56827;52.178;4.500;2023-05-10T00:10:43;34.65;31.83;40.85;;
66463;Laerm;56827;52.178;4.500;2023-05-10T00:10:53;34.83;32.30;40.84;;
66463;Laerm;56827;52.178;4.500;2023-05-10T00:11:03;34.03;31.02;42.06;;
66463;Laerm;56827;52.178;4.500;2023-05-10T00:11:14;33.82;31.03;39.37;;
66463;Laerm;56827;52.178;4.500;2023-05-10T00:11:24;34.24;30.73;41.84;;
66463;Laerm;56827;52.178;4.500;2023-05-10T00:11:34;34.57;31.62;44.76;;
66463;Laerm;56827;52.178;4.500;2023-05-10T00:11:44;35.12;32.39;41.42;;
66463;Laerm;56827;52.178;4.500;2023-05-10T00:11:55;35.67;32.58;43.45;;
66463;Laerm;56827;52.178;4.500;2023-05-10T00:12:05;37.34;31.61;52.52;;
66463;Laerm;56827;52.178;4.500;2023-05-10T00:12:15;35.13;32.14;39.42;;
66463;Laerm;56827;52.178;4.500;2023-05-10T00:12:26;37.51;34.17;41.89;;
66463;Laerm;56827;52.178;4.500;2023-05-10T00:12:36;37.13;33.40;42.06;;
66463;Laerm;56827;52.178;4.500;2023-05-10T00:12:46;36.26;33.52;43.68;;
66463;Laerm;56827;52.178;4.500;2023-05-10T00:12:56;35.81;32.94;43.26;;
66463;Laerm;56827;52.178;4.500;2023-05-10T00:13:07;35.33;32.46;40.12;;
66463;Laerm;56827;52.178;4.500;2023-05-10T00:13:17;36.84;33.60;41.06;;
66463;Laerm;56827;52.178;4.500;2023-05-10T00:13:27;35.61;32.57;40.29;;
66463;Laerm;56827;52.178;4.500;2023-05-10T00:13:37;36.93;31.88;41.00;;
66463;Laerm;56827;52.178;4.500;2023-05-10T00:13:47;36.84;33.60;48.39;;
66463;Laerm;56827;52.178;4.500;2023-05-10T00:13:58;36.00;33.08;49.38;;
66463;Laerm;56827;52.178;4.500;2023-05-10T00:14:08;34.92;32.63;41.16;;
66463;Laerm;56827;52.178;4.500;2023-05-10T00:14:18;35.43;33.07;42.55;;
66463;Laerm;56827;52.178;4.500;2023-05-10T00:14:29;34.20;31.27;39.73;;
66463;Laerm;56827;52.178;4.500;2023-05-10T00:14:39;34.10;31.40;39.81;;
66463;Laerm;56827;52.178;4.500;2023-05-10T00:14:50;34.61;32.06;41.25;;
66463;Laerm;56827;52.178;4.500;2023-05-10T00:15:00;34.33;31.57;40.62;;
66463;Laerm;56827;52.178;4.500;2023-05-10T00:15:10;36.46;33.25;40.78;;
66463;Laerm;56827;52.178;4.500;2023-05-10T00:15:20;35.38;32.92;47.23;;
66463;Laerm;56827;52.178;4.500;2023-05-10T00:15:30;35.68;33.27;39.62;;
66463;Laerm;56827;52.178;4.500;2023-05-10T00:15:41;35.00;32.70;40.33;;
66463;Laerm;56827;52.178;4.500;2023-05-10T00:15:51;35.35;33.03;40.09;;
66463;Laerm;56827;52.178;4.500;2023-05-10T00:16:01;34.81;31.42;45.13;;
66463;Laerm;56827;52.178;4.500;2023-05-10T00:16:12;34.80;31.88;41.92;;
66463;Laerm;56827;52.178;4.500;2023-05-10T00:16:23;34.86;31.84;40.70;;
66463;Laerm;56827;52.178;4.500;2023-05-10T00:16:33;35.21;31.73;48.52;;
66463;Laerm;56827;52.178;4.500;2023-05-10T00:16:43;34.14;31.57;40.79;;
66463;Laerm;56827;52.178;4.500;2023-05-10T00:16:53;33.92;31.38;39.19;;
66463;Laerm;56827;52.178;4.500;2023-05-10T00:17:03;33.53;30.97;39.99;;
66463;Laerm;56827;52.178;4.500;2023-05-10T00:17:14;33.67;30.77;40.33;;
66463;Laerm;56827;52.178;4.500;2023-05-10T00:17:24;33.43;30.72;39.73;;
66463;Laerm;56827;52.178;4.500;2023-05-10T00:17:34;33.14;30.43;39.80;;
66463;Laerm;56827;52.178;4.500;2023-05-10T00:17:45;33.25;30.54;39.87;;
66463;Laerm;56827;52.178;4.500;2023-05-10T00:17:55;33.71;30.50;44.66;;
66463;Laerm;56827;52.178;4.500;2023-05-10T00:18:05;33.43;30.30;41.37;;
66463;Laerm;56827;52.178;4.500;2023-05-10T00:18:15;34.01;31.46;40.25;;
66463;Laerm;56827;52.178;4.500;2023-05-10T00:18:26;34.82;31.20;45.95;;
66463;Laerm;56827;52.178;4.500;2023-05-10T00:18:36;34.69;31.50;40.51;;
66463;Laerm;56827;52.178;4.500;2023-05-10T00:18:46;34.64;31.63;45.35;;
66463;Laerm;56827;52.178;4.500;2023-05-10T00:18:56;33.86;30.66;39.13;;
66463;Laerm;56827;52.178;4.500;2023-05-10T00:19:07;34.34;31.48;39.96;;
66463;Laerm;56827;52.178;4.500;2023-05-10T00:19:17;34.16;31.60;39.57;;
66463;Laerm;56827;52.178;4.500;2023-05-10T00:19:27;34.65;32.15;39.93;;
66463;Laerm;56827;52.178;4.500;2023-05-10T00:19:37;35.75;31.76;41.29;;
66463;Laerm;56827;52.178;4.500;2023-05-10T00:19:48;33.69;31.20;40.55;;
66463;Laerm;56827;52.178;4.500;2023-05-10T00:19:58;33.51;30.62;40.24;;
66463;Laerm;56827;52.178;4.500;2023-05-10T00:20:08;33.69;30.76;39.49;;
66463;Laerm;56827;52.178;4.500;2023-05-10T00:20:19;33.51;30.46;40.29;;
66463;Laerm;56827;52.178;4.500;2023-05-10T00:20:29;32.91;30.13;40.21;;
66463;Laerm;56827;52.178;4.500;2023-05-10T00:20:39;33.11;30.25;40.49;;
66463;Laerm;56827;52.178;4.500;2023-05-10T00:20:50;33.39;30.24;40.36;;
66463;Laerm;56827;52.178;4.500;2023-05-10T00:21:00;32.98;30.14;40.05;;
66463;Laerm;56827;52.178;4.500;2023-05-10T00:21:10;33.22;30.42;40.09;;
66463;Laerm;56827;52.178;4.500;2023-05-10T00:21:20;33.57;30.50;38.71;;
66463;Laerm;56827;52.178;4.500;2023-05-10T00:21:30;33.80;30.44;45.87;;
66463;Laerm;56827;52.178;4.500;2023-05-10T00:21:42;33.36;30.39;39.98;;
66463;Laerm;56827;52.178;4.500;2023-05-10T00:21:52;33.11;30.36;39.24;;
66463;Laerm;56827;52.178;4.500;2023-05-10T00:22:04;33.51;30.50;45.14;;
66463;Laerm;56827;52.178;4.500;2023-05-10T00:22:14;33.53;30.74;40.23;;
66463;Laerm;56827;52.178;4.500;2023-05-10T00:22:25;33.74;30.81;39.73;;
66463;Laerm;56827;52.178;4.500;2023-05-10T00:22:35;34.93;31.55;40.16;;
66463;Laerm;56827;52.178;4.500;2023-05-10T00:22:45;34.44;31.78;40.16;;
66463;Laerm;56827;52.178;4.500;2023-05-10T00:22:55;34.19;31.73;41.13;;
66463;Laerm;56827;52.178;4.500;2023-05-10T00:23:06;34.25;31.56;40.21;;
66463;Laerm;56827;52.178;4.500;2023-05-10T00:23:16;34.37;31.63;39.99;;
66463;Laerm;56827;52.178;4.500;2023-05-10T00:23:26;33.73;30.86;40.33;;
66463;Laerm;56827;52.178;4.500;2023-05-10T00:23:36;33.88;30.89;40.01;;
66463;Laerm;56827;52.178;4.500;2023-05-10T00:23:47;35.50;32.31;49.61;;
66463;Laerm;56827;52.178;4.500;2023-05-10T00:23:57;34.33;31.32;39.65;;
66463;Laerm;56827;52.178;4.500;2023-05-10T00:24:07;34.49;31.77;49.22;;
66463;Laerm;56827;52.178;4.500;2023-05-10T00:24:18;33.56;31.05;39.76;;
66463;Laerm;56827;52.178;4.500;2023-05-10T00:24:28;34.09;31.04;40.66;;
66463;Laerm;56827;52.178;4.500;2023-05-10T00:24:40;33.75;30.86;42.63;;
66463;Laerm;56827;52.178;4.500;2023-05-10T00:24:51;33.72;30.72;40.04;;
66463;Laerm;56827;52.178;4.500;2023-05-10T00:25:01;34.07;30.80;40.81;;
66463;Laerm;56827;52.178;4.500;2023-05-10T00:25:11;33.62;30.96;39.94;;
66463;Laerm;56827;52.178;4.500;2023-05-10T00:25:21;33.71;30.73;39.92;;
66463;Laerm;56827;52.178;4.500;2023-05-10T00:25:31;33.66;30.72;41.23;;
66463;Laerm;56827;52.178;4.500;2023-05-10T00:25:42;33.38;30.35;40.87;;
66463;Laerm;56827;52.178;4.500;2023-05-10T00:25:52;33.12;30.37;40.07;;
66463;Laerm;56827;52.178;4.500;2023-05-10T00:26:02;33.43;30.62;39.65;;
66463;Laerm;56827;52.178;4.500;2023-05-10T00:26:12;33.89;30.41;44.82;;
66463;Laerm;56827;52.178;4.500;2023-05-10T00:26:23;33.68;30.47;46.40;;
66463;Laerm;56827;52.178;4.500;2023-05-10T00:26:33;32.87;29.98;41.58;;
66463;Laerm;56827;52.178;4.500;2023-05-10T00:26:43;32.79;30.10;38.86;;
66463;Laerm;56827;52.178;4.500;2023-05-10T00:26:53;33.37;30.25;39.21;;
66463;Laerm;56827;52.178;4.500;2023-05-10T00:27:04;32.79;30.22;39.83;;
66463;Laerm;56827;52.178;4.500;2023-05-10T00:27:14;33.23;30.44;40.38;;
66463;Laerm;56827;52.178;4.500;2023-05-10T00:27:24;33.19;30.38;40.59;;
66463;Laerm;56827;52.178;4.500;2023-05-10T00:27:34;33.42;30.34;44.29;;
66463;Laerm;56827;52.178;4.500;2023-05-10T00:27:45;33.17;30.41;41.16;;
66463;Laerm;56827;52.178;4.500;2023-05-10T00:27:55;33.41;30.58;40.45;;
66463;Laerm;56827;52.178;4.500;2023-05-10T00:28:07;33.30;30.25;39.64;;
66463;Laerm;56827;52.178;4.500;2023-05-10T00:28:17;33.16;30.18;39.59;;
66463;Laerm;56827;52.178;4.500;2023-05-10T00:28:27;33.22;30.25;39.41;;
66463;Laerm;56827;52.178;4.500;2023-05-10T00:28:38;33.49;30.97;40.19;;
66463;Laerm;56827;52.178;4.500;2023-05-10T00:28:48;33.58;31.02;39.03;;
66463;Laerm;56827;52.178;4.500;2023-05-10T00:28:58;33.95;31.56;40.10;;
66463;Laerm;56827;52.178;4.500;2023-05-10T00:29:09;34.05;31.35;40.80;;
66463;Laerm;56827;52.178;4.500;2023-05-10T00:29:20;34.01;31.79;40.40;;
66463;Laerm;56827;52.178;4.500;2023-05-10T00:29:30;34.47;31.40;42.25;;
66463;Laerm;56827;52.178;4.500;2023-05-10T00:29:41;34.59;31.98;39.91;;
66463;Laerm;56827;52.178;4.500;2023-05-10T00:29:51;35.30;32.97;41.45;;
66463;Laerm;56827;52.178;4.500;2023-05-10T00:30:02;37.65;34.15;47.29;;
66463;Laerm;56827;52.178;4.500;2023-05-10T00:30:12;36.46;34.01;43.28;;
66463;Laerm;56827;52.178;4.500;2023-05-10T00:30:22;35.75;32.88;40.79;;
66463;Laerm;56827;52.178;4.500;2023-05-10T00:30:33;33.95;31.29;43.83;;
66463;Laerm;56827;52.178;4.500;2023-05-10T00:30:43;33.61;30.60;41.62;;
66463;Laerm;56827;52.178;4.500;2023-05-10T00:30:53;33.84;30.78;40.48;;
66463;Laerm;56827;52.178;4.500;2023-05-10T00:31:04;33.53;30.80;45.49;;
66463;Laerm;56827;52.178;4.500;2023-05-10T00:31:14;33.35;30.90;42.16;;
66463;Laerm;56827;52.178;4.500;2023-05-10T00:31:24;32.90;30.11;40.74;;
66463;Laerm;56827;52.178;4.500;2023-05-10T00:31:34;33.46;30.25;43.26;;
66463;Laerm;56827;52.178;4.500;2023-05-10T00:31:45;33.60;30.71;40.18;;
66463;Laerm;56827;52.178;4.500;2023-05-10T00:31:55;35.09;32.29;43.40;;
66463;Laerm;56827;52.178;4.500;2023-05-10T00:32:06;36.37;33.99;43.71;;
66463;Laerm;56827;52.178;4.500;2023-05-10T00:32:16;34.80;31.60;42.29;;
66463;Laerm;56827;52.178;4.500;2023-05-10T00:32:26;34.12;30.72;39.65;;
66463;Laerm;56827;52.178;4.500;2023-05-10T00:32:37;34.05;31.28;39.86;;
66463;Laerm;56827;52.178;4.500;2023-05-10T00:32:47;33.42;30.63;41.02;;
66463;Laerm;56827;52.178;4.500;2023-05-10T00:32:59;33.16;30.52;39.22;;
66463;Laerm;56827;52.178;4.500;2023-05-10T00:33:10;33.41;30.03;41.36;;
66463;Laerm;56827;52.178;4.500;2023-05-10T00:33:21;33.45;30.62;38.85;;
66463;Laerm;56827;52.178;4.500;2023-05-10T00:33:32;33.65;30.67;39.15;;
66463;Laerm;56827;52.178;4.500;2023-05-10T00:33:42;33.62;30.82;38.84;;
66463;Laerm;56827;52.178;4.500;2023-05-10T00:33:52;33.44;30.32;39.37;;
66463;Laerm;56827;52.178;4.500;2023-05-10T00:34:03;33.35;30.03;39.73;;
66463;Laerm;56827;52.178;4.500;2023-05-10T00:34:13;33.53;31.00;40.21;;
66463;Laerm;56827;52.178;4.500;2023-05-10T00:34:23;33.41;30.09;40.29;;
66463;Laerm;56827;52.178;4.500;2023-05-10T00:34:34;34.01;30.50;51.70;;
66463;Laerm;56827;52.178;4.500;2023-05-10T00:34:44;33.37;30.65;39.73;;
66463;Laerm;56827;52.178;4.500;2023-05-10T00:34:55;33.22;30.18;39.57;;
66463;Laerm;56827;52.178;4.500;2023-05-10T00:35:05;33.85;30.93;41.05;;
66463;Laerm;56827;52.178;4.500;2023-05-10T00:35:15;34.81;31.63;41.10;;
66463;Laerm;56827;52.178;4.500;2023-05-10T00:35:25;35.84;32.04;41.14;;
66463;Laerm;56827;52.178;4.500;2023-05-10T00:35:36;34.94;31.51;39.93;;
66463;Laerm;56827;52.178;4.500;2023-05-10T00:35:47;34.67;31.29;40.83;;
66463;Laerm;56827;52.178;4.500;2023-05-10T00:35:58;34.64;31.51;39.15;;
66463;Laerm;56827;52.178;4.500;2023-05-10T00:36:08;34.84;31.72;43.26;;
66463;Laerm;56827;52.178;4.500;2023-05-10T00:36:18;34.66;31.52;40.97;;
66463;Laerm;56827;52.178;4.500;2023-05-10T00:36:29;34.00;31.57;40.97;;
66463;Laerm;56827;52.178;4.500;2023-05-10T00:36:39;34.13;31.03;39.63;;
66463;Laerm;56827;52.178;4.500;2023-05-10T00:36:49;34.11;31.23;44.53;;
66463;Laerm;56827;52.178;4.500;2023-05-10T00:36:59;33.59;30.90;40.39;;
66463;Laerm;56827;52.178;4.500;2023-05-10T00:37:10;33.95;30.40;38.95;;
66463;Laerm;56827;52.178;4.500;2023-05-10T00:37:20;34.73;30.77;50.25;;
66463;Laerm;56827;52.178;4.500;2023-05-10T00:37:33;33.65;30.40;42.14;;
66463;Laerm;56827;52.178;4.500;2023-05-10T00:37:43;33.32;30.52;40.67;;
66463;Laerm;56827;52.178;4.500;2023-05-10T00:37:54;33.43;30.46;39.93;;
66463;Laerm;56827;52.178;4.500;2023-05-10T00:38:04;33.32;30.12;42.93;;
66463;Laerm;56827;52.178;4.500;2023-05-10T00:38:14;33.23;30.38;38.84;;
66463;Laerm;56827;52.178;4.500;2023-05-10T00:38:24;33.60;30.10;43.76;;
66463;Laerm;56827;52.178;4.500;2023-05-10T00:38:35;33.00;30.56;39.39;;
66463;Laerm;56827;52.178;4.500;2023-05-10T00:38:45;34.24;30.51;45.29;;
66463;Laerm;56827;52.178;4.500;2023-05-10T00:38:55;37.83;30.67;50.38;;
66463;Laerm;56827;52.178;4.500;2023-05-10T00:39:06;38.03;31.06;47.98;;
66463;Laerm;56827;52.178;4.500;2023-05-10T00:39:16;36.48;31.92;44.57;;
66463;Laerm;56827;52.178;4.500;2023-05-10T00:39:26;38.85;31.30;54.85;;
66463;Laerm;56827;52.178;4.500;2023-05-10T00:39:38;35.05;31.23;42.27;;
66463;Laerm;56827;52.178;4.500;2023-05-10T00:39:48;35.79;31.51;48.36;;
66463;Laerm;56827;52.178;4.500;2023-05-10T00:39:59;35.52;32.56;41.76;;
66463;Laerm;56827;52.178;4.500;2023-05-10T00:40:09;36.92;32.57;45.92;;
66463;Laerm;56827;52.178;4.500;2023-05-10T00:40:19;34.19;30.70;43.75;;
66463;Laerm;56827;52.178;4.500;2023-05-10T00:40:30;34.98;30.51;44.83;;
66463;Laerm;56827;52.178;4.500;2023-05-10T00:40:40;35.02;30.14;44.45;;
66463;Laerm;56827;52.178;4.500;2023-05-10T00:40:51;35.34;31.28;44.08;;
66463;Laerm;56827;52.178;4.500;2023-05-10T00:41:01;34.49;31.23;41.50;;
66463;Laerm;56827;52.178;4.500;2023-05-10T00:41:11;33.83;31.30;39.45;;
66463;Laerm;56827;52.178;4.500;2023-05-10T00:41:22;34.18;30.55;42.74;;
66463;Laerm;56827;52.178;4.500;2023-05-10T00:41:32;33.88;30.97;39.76;;
66463;Laerm;56827;52.178;4.500;2023-05-10T00:41:42;34.33;30.59;41.20;;
66463;Laerm;56827;52.178;4.500;2023-05-10T00:41:53;33.58;30.97;40.16;;
66463;Laerm;56827;52.178;4.500;2023-05-10T00:42:03;34.21;30.82;42.79;;
66463;Laerm;56827;52.178;4.500;2023-05-10T00:42:14;34.38;31.43;39.53;;
66463;Laerm;56827;52.178;4.500;2023-05-10T00:42:24;34.41;31.94;39.45;;
66463;Laerm;56827;52.178;4.500;2023-05-10T00:42:35;34.26;31.81;39.95;;
66463;Laerm;56827;52.178;4.500;2023-05-10T00:42:45;36.39;33.24;47.50;;
66463;Laerm;56827;52.178;4.500;2023-05-10T00:42:55;38.75;34.08;43.92;;
66463;Laerm;56827;52.178;4.500;2023-05-10T00:43:05;37.03;33.35;42.04;;
66463;Laerm;56827;52.178;4.500;2023-05-10T00:43:16;37.56;34.29;40.97;;
66463;Laerm;56827;52.178;4.500;2023-05-10T00:43:26;35.36;32.08;45.36;;
66463;Laerm;56827;52.178;4.500;2023-05-10T00:43:36;35.48;32.04;47.21;;
66463;Laerm;56827;52.178;4.500;2023-05-10T00:43:47;35.34;32.74;40.42;;
66463;Laerm;56827;52.178;4.500;2023-05-10T00:43:57;34.99;32.53;41.28;;
66463;Laerm;56827;52.178;4.500;2023-05-10T00:44:07;35.44;32.85;41.59;;
66463;Laerm;56827;52.178;4.500;2023-05-10T00:44:17;35.54;32.32;40.86;;
66463;Laerm;56827;52.178;4.500;2023-05-10T00:44:28;36.01;33.14;41.16;;
66463;Laerm;56827;52.178;4.500;2023-05-10T00:44:38;34.94;32.37;39.52;;
66463;Laerm;56827;52.178;4.500;2023-05-10T00:44:48;35.78;32.92;41.13;;
66463;Laerm;56827;52.178;4.500;2023-05-10T00:44:59;37.34;34.70;42.05;;
66463;Laerm;56827;52.178;4.500;2023-05-10T00:45:09;36.82;33.91;41.83;;
66463;Laerm;56827;52.178;4.500;2023-05-10T00:45:19;35.74;33.22;40.94;;
66463;Laerm;56827;52.178;4.500;2023-05-10T00:45:32;36.34;33.67;40.83;;
66463;Laerm;56827;52.178;4.500;2023-05-10T00:45:43;35.74;32.73;40.71;;
66463;Laerm;56827;52.178;4.500;2023-05-10T00:45:53;36.04;33.03;40.48;;
66463;Laerm;56827;52.178;4.500;2023-05-10T00:46:04;36.33;33.54;42.68;;
66463;Laerm;56827;52.178;4.500;2023-05-10T00:46:15;35.99;32.83;41.42;;
66463;Laerm;56827;52.178;4.500;2023-05-10T00:46:25;35.45;33.05;39.55;;
66463;Laerm;56827;52.178;4.500;2023-05-10T00:46:36;34.97;32.62;39.86;;
66463;Laerm;56827;52.178;4.500;2023-05-10T00:46:46;34.22;31.53;39.98;;
66463;Laerm;56827;52.178;4.500;2023-05-10T00:46:57;33.89;31.22;39.59;;
66463;Laerm;56827;52.178;4.500;2023-05-10T00:47:08;34.20;31.11;41.59;;
66463;Laerm;56827;52.178;4.500;2023-05-10T00:47:19;33.85;31.31;40.35;;
66463;Laerm;56827;52.178;4.500;2023-05-10T00:47:29;34.88;32.09;39.47;;
66463;Laerm;56827;52.178;4.500;2023-05-10T00:47:39;36.70;33.60;41.22;;
66463;Laerm;56827;52.178;4.500;2023-05-10T00:47:50;36.23;32.75;41.59;;
66463;Laerm;56827;52.178;4.500;2023-05-10T00:48:02;36.04;32.89;40.23;;
66463;Laerm;56827;52.178;4.500;2023-05-10T00:48:12;34.55;31.76;39.78;;
66463;Laerm;56827;52.178;4.500;2023-05-10T00:48:22;33.77;31.38;40.01;;
66463;Laerm;56827;52.178;4.500;2023-05-10T00:48:35;33.80;31.57;40.17;;
66463;Laerm;56827;52.178;4.500;2023-05-10T00:48:46;35.07;31.70;48.31;;
66463;Laerm;56827;52.178;4.500;2023-05-10T00:48:56;34.67;31.59;40.54;;
66463;Laerm;56827;52.178;4.500;2023-05-10T00:49:07;34.05;31.63;39.82;;
66463;Laerm;56827;52.178;4.500;2023-05-10T00:49:17;34.21;31.36;39.64;;
66463;Laerm;56827;52.178;4.500;2023-05-10T00:49:27;34.73;32.12;39.74;;
66463;Laerm;56827;52.178;4.500;2023-05-10T00:49:38;34.63;31.58;39.17;;
66463;Laerm;56827;52.178;4.500;2023-05-10T00:49:48;35.71;32.21;41.36;;
66463;Laerm;56827;52.178;4.500;2023-05-10T00:49:59;34.29;31.29;40.53;;
66463;Laerm;56827;52.178;4.500;2023-05-10T00:50:10;34.08;31.69;40.23;;
66463;Laerm;56827;52.178;4.500;2023-05-10T00:50:21;34.29;31.55;39.69;;
66463;Laerm;56827;52.178;4.500;2023-05-10T00:50:32;35.20;31.46;41.14;;
66463;Laerm;56827;52.178;4.500;2023-05-10T00:50:45;36.25;32.21;41.44;;
66463;Laerm;56827;52.178;4.500;2023-05-10T00:50:55;39.35;33.47;49.04;;
66463;Laerm;56827;52.178;4.500;2023-05-10T00:51:05;39.42;33.74;45.04;;
66463;Laerm;56827;52.178;4.500;2023-05-10T00:51:16;39.52;33.94;45.45;;
66463;Laerm;56827;52.178;4.500;2023-05-10T00:51:26;39.00;33.16;47.45;;
66463;Laerm;56827;52.178;4.500;2023-05-10T00:51:37;37.66;32.88;42.02;;
66463;Laerm;56827;52.178;4.500;2023-05-10T00:51:47;36.66;31.99;41.83;;
66463;Laerm;56827;52.178;4.500;2023-05-10T00:51:57;35.77;31.62;41.58;;
66463;Laerm;56827;52.178;4.500;2023-05-10T00:52:08;35.05;31.61;45.99;;
66463;Laerm;56827;52.178;4.500;2023-05-10T00:52:19;34.17;30.98;46.30;;
66463;Laerm;56827;52.178;4.500;2023-05-10T00:52:29;33.47;30.68;40.40;;
66463;Laerm;56827;52.178;4.500;2023-05-10T00:52:40;33.96;30.44;44.77;;
66463;Laerm;56827;52.178;4.500;2023-05-10T00:52:50;32.94;30.66;38.16;;
66463;Laerm;56827;52.178;4.500;2023-05-10T00:53:00;33.14;30.03;42.91;;
66463;Laerm;56827;52.178;4.500;2023-05-10T00:53:12;32.76;30.31;39.77;;
66463;Laerm;56827;52.178;4.500;2023-05-10T00:53:22;33.08;29.88;41.32;;
66463;Laerm;56827;52.178;4.500;2023-05-10T00:53:33;33.10;30.46;39.82;;
66463;Laerm;56827;52.178;4.500;2023-05-10T00:53:47;33.28;29.91;45.67;;
66463;Laerm;56827;52.178;4.500;2023-05-10T00:53:58;33.06;30.11;46.27;;
66463;Laerm;56827;52.178;4.500;2023-05-10T00:54:09;32.86;29.89;39.18;;
66463;Laerm;56827;52.178;4.500;2023-05-10T00:54:21;33.28;30.12;40.04;;
66463;Laerm;56827;52.178;4.500;2023-05-10T00:54:31;33.38;29.92;40.06;;
66463;Laerm;56827;52.178;4.500;2023-05-10T00:54:41;33.05;30.43;39.23;;
66463;Laerm;56827;52.178;4.500;2023-05-10T00:54:51;33.52;30.19;43.72;;
66463;Laerm;56827;52.178;4.500;2023-05-10T00:55:02;33.11;30.21;39.61;;
66463;Laerm;56827;52.178;4.500;2023-05-10T00:55:13;33.32;30.26;43.41;;
66463;Laerm;56827;52.178;4.500;2023-05-10T00:55:23;33.47;30.63;39.79;;
66463;Laerm;56827;52.178;4.500;2023-05-10T00:55:34;34.22;30.84;39.96;;
66463;Laerm;56827;52.178;4.500;2023-05-10T00:55:44;34.66;31.87;44.14;;
66463;Laerm;56827;52.178;4.500;2023-05-10T00:55:55;33.65;31.18;39.47;;
66463;Laerm;56827;52.178;4.500;2023-05-10T00:56:05;34.16;31.68;42.23;;
66463;Laerm;56827;52.178;4.500;2023-05-10T00:56:16;34.50;31.30;40.75;;
66463;Laerm;56827;52.178;4.500;2023-05-10T00:56:26;34.18;31.72;40.97;;
66463;Laerm;56827;52.178;4.500;2023-05-10T00:56:38;34.82;32.27;40.42;;
66463;Laerm;56827;52.178;4.500;2023-05-10T00:56:49;37.60;34.48;41.77;;
66463;Laerm;56827;52.178;4.500;2023-05-10T00:56:59;36.41;33.38;41.32;;
66463;Laerm;56827;52.178;4.500;2023-05-10T00:57:10;37.54;34.59;44.67;;
66463;Laerm;56827;52.178;4.500;2023-05-10T00:57:21;36.34;32.86;40.85;;
66463;Laerm;56827;52.178;4.500;2023-05-10T00:57:31;34.76;30.98;40.71;;
66463;Laerm;56827;52.178;4.500;2023-05-10T00:57:41;33.59;30.32;48.01;;
66463;Laerm;56827;52.178;4.500;2023-05-10T00:57:52;33.68;30.52;39.24;;
66463;Laerm;56827;52.178;4.500;2023-05-10T00:58:03;34.45;31.77;40.02;;
66463;Laerm;56827;52.178;4.500;2023-05-10T00:58:14;33.19;30.41;39.55;;
66463;Laerm;56827;52.178;4.500;2023-05-10T00:58:25;33.97;30.56;46.91;;
66463;Laerm;56827;52.178;4.500;2023-05-10T00:58:38;34.27;31.09;40.53;;